sensor_id;sensor_type;location;lat;lon;timestamp;temperature;humidity
41939;DHT22;23057;48.554;14.454;2023-04-23T00:01:26;7.60;99.90
41939;DHT22;23057;48.554;14.454;2023-04-23T00:03:57;7.50;99.90
41939;DHT22;23057;48.554;14.454;2023-04-23T00:06:30;7.50;99.90
41939;DHT22;23057;48.554;14.454;2023-04-23T00:09:02;7.30;99.90
41939;DHT22;23057;48.554;14.454;2023-04-23T00:11:36;7.30;99.90
41939;DHT22;23057;48.554;14.454;2023-04-23T00:14:07;7.30;99.90
41939;DHT22;23057;48.554;14.454;2023-04-23T00:16:38;7.30;99.90
41939;DHT22;23057;48.554;14.454;2023-04-23T00:19:10;7.40;99.90
41939;DHT22;23057;48.554;14.454;2023-04-23T00:21:40;7.40;99.90
41939;DHT22;23057;48.554;14.454;2023-04-23T00:24:11;7.40;99.90
41939;DHT22;23057;48.554;14.454;2023-04-23T00:26:42;7.50;99.90
41939;DHT22;23057;48.554;14.454;2023-04-23T00:29:13;7.50;99.90
41939;DHT22;23057;48.554;14.454;2023-04-23T00:31:43;7.40;99.90
41939;DHT22;23057;48.554;14.454;2023-04-23T00:34:14;7.50;99.90
41939;DHT22;23057;48.554;14.454;2023-04-23T00:36:45;7.50;99.90
41939;DHT22;23057;48.554;14.454;2023-04-23T00:39:16;7.30;99.90
41939;DHT22;23057;48.554;14.454;2023-04-23T00:41:46;7.00;99.90
41939;DHT22;23057;48.554;14.454;2023-04-23T00:44:18;7.00;99.90
41939;DHT22;23057;48.554;14.454;2023-04-23T00:46:49;7.00;99.90
41939;DHT22;23057;48.554;14.454;2023-04-23T00:49:20;7.00;99.90
41939;DHT22;23057;48.554;14.454;2023-04-23T00:51:53;6.90;99.90
41939;DHT22;23057;48.554;14.454;2023-04-23T00:54:24;6.90;99.90
41939;DHT22;23057;48.554;14.454;2023-04-23T00:56:55;6.80;99.90
41939;DHT22;23057;48.554;14.454;2023-04-23T00:59:28;6.80;99.90
41939;DHT22;23057;48.554;14.454;2023-04-23T01:02:01;6.80;99.90
41939;DHT22;23057;48.554;14.454;2023-04-23T01:04:31;6.80;99.90
41939;DHT22;23057;48.554;14.454;2023-04-23T01:07:03;6.70;99.90
41939;DHT22;23057;48.554;14.454;2023-04-23T01:09:34;6.70;99.90
41939;DHT22;23057;48.554;14.454;2023-04-23T01:12:05;6.60;99.90
41939;DHT22;23057;48.554;14.454;2023-04-23T01:14:36;6.60;99.90
41939;DHT22;23057;48.554;14.454;2023-04-23T01:17:07;6.40;99.90
41939;DHT22;23057;48.554;14.454;2023-04-23T01:19:39;6.30;99.90
41939;DHT22;23057;48.554;14.454;2023-04-23T01:22:11;6.20;99.90
41939;DHT22;23057;48.554;14.454;2023-04-23T01:24:44;6.10;99.90
41939;DHT22;23057;48.554;14.454;2023-04-23T01:27:16;6.10;99.90
41939;DHT22;23057;48.554;14.454;2023-04-23T01:29:49;6.30;99.90
41939;DHT22;23057;48.554;14.454;2023-04-23T01:32:21;6.50;99.90
41939;DHT22;23057;48.554;14.454;2023-04-23T01:34:52;6.60;99.90
41939;DHT22;23057;48.554;14.454;2023-04-23T01:37:25;6.60;99.90
41939;DHT22;23057;48.554;14.454;2023-04-23T01:39:58;6.60;99.90
41939;DHT22;23057;48.554;14.454;2023-04-23T01:42:30;6.60;99.90
41939;DHT22;23057;48.554;14.454;2023-04-23T01:45:01;6.60;99.90
41939;DHT22;23057;48.554;14.454;2023-04-23T01:47:33;6.60;99.90
41939;DHT22;23057;48.554;14.454;2023-04-23T01:50:05;6.60;99.90
41939;DHT22;23057;48.554;14.454;2023-04-23T01:52:36;6.60;99.90
41939;DHT22;23057;48.554;14.454;2023-04-23T01:57:47;6.60;99.90
41939;DHT22;23057;48.554;14.454;2023-04-23T02:00:18;6.60;99.90
41939;DHT22;23057;48.554;14.454;2023-04-23T02:02:49;6.60;99.90
41939;DHT22;23057;48.554;14.454;2023-04-23T02:05:22;6.70;99.90
41939;DHT22;23057;48.554;14.454;2023-04-23T02:07:55;6.50;99.90
41939;DHT22;23057;48.554;14.454;2023-04-23T02:10:26;6.60;99.90
41939;DHT22;23057;48.554;14.454;2023-04-23T02:12:57;6.60;99.90
41939;DHT22;23057;48.554;14.454;2023-04-23T02:15:29;6.70;99.90
41939;DHT22;23057;48.554;14.454;2023-04-23T02:18:00;6.80;99.90
41939;DHT22;23057;48.554;14.454;2023-04-23T02:20:31;6.90;99.90
41939;DHT22;23057;48.554;14.454;2023-04-23T02:23:02;6.90;99.90
41939;DHT22;23057;48.554;14.454;2023-04-23T02:25:33;7.00;99.90
41939;DHT22;23057;48.554;14.454;2023-04-23T02:28:07;7.00;99.90
41939;DHT22;23057;48.554;14.454;2023-04-23T02:30:40;7.00;99.90
41939;DHT22;23057;48.554;14.454;2023-04-23T02:33:15;7.10;99.90
41939;DHT22;23057;48.554;14.454;2023-04-23T02:35:46;7.00;99.90
41939;DHT22;23057;48.554;14.454;2023-04-23T02:38:16;6.90;99.90
41939;DHT22;23057;48.554;14.454;2023-04-23T02:40:47;6.80;99.90
41939;DHT22;23057;48.554;14.454;2023-04-23T02:43:18;6.80;99.90
41939;DHT22;23057;48.554;14.454;2023-04-23T02:45:49;6.60;99.90
41939;DHT22;23057;48.554;14.454;2023-04-23T02:48:19;6.40;99.90
41939;DHT22;23057;48.554;14.454;2023-04-23T02:50:51;6.40;99.90
41939;DHT22;23057;48.554;14.454;2023-04-23T02:53:22;6.30;99.90
41939;DHT22;23057;48.554;14.454;2023-04-23T02:55:53;6.40;99.90
41939;DHT22;23057;48.554;14.454;2023-04-23T02:58:24;6.40;99.90
41939;DHT22;23057;48.554;14.454;2023-04-23T03:00:56;6.30;99.90
41939;DHT22;23057;48.554;14.454;2023-04-23T03:03:28;6.30;99.90
41939;DHT22;23057;48.554;14.454;2023-04-23T03:06:01;6.20;99.90
41939;DHT22;23057;48.554;14.454;2023-04-23T03:08:32;6.20;99.90
41939;DHT22;23057;48.554;14.454;2023-04-23T03:11:03;6.20;99.90
41939;DHT22;23057;48.554;14.454;2023-04-23T03:13:34;6.00;99.90
41939;DHT22;23057;48.554;14.454;2023-04-23T03:16:05;6.00;99.90
41939;DHT22;23057;48.554;14.454;2023-04-23T03:18:37;6.00;99.90
41939;DHT22;23057;48.554;14.454;2023-04-23T03:21:08;6.00;99.90
41939;DHT22;23057;48.554;14.454;2023-04-23T03:23:39;6.10;99.90
41939;DHT22;23057;48.554;14.454;2023-04-23T03:26:10;6.20;99.90
41939;DHT22;23057;48.554;14.454;2023-04-23T03:28:41;6.20;99.90
41939;DHT22;23057;48.554;14.454;2023-04-23T03:31:12;6.00;99.90
41939;DHT22;23057;48.554;14.454;2023-04-23T03:33:42;5.90;99.90
41939;DHT22;23057;48.554;14.454;2023-04-23T03:36:13;5.90;99.90
41939;DHT22;23057;48.554;14.454;2023-04-23T03:38:44;6.00;99.90
41939;DHT22;23057;48.554;14.454;2023-04-23T03:41:15;5.90;99.90
41939;DHT22;23057;48.554;14.454;2023-04-23T03:43:47;5.90;99.90
41939;DHT22;23057;48.554;14.454;2023-04-23T03:46:17;6.00;99.90
41939;DHT22;23057;48.554;14.454;2023-04-23T03:48:48;6.00;99.90
41939;DHT22;23057;48.554;14.454;2023-04-23T03:51:19;6.10;99.90
41939;DHT22;23057;48.554;14.454;2023-04-23T03:53:49;6.20;99.90
41939;DHT22;23057;48.554;14.454;2023-04-23T03:56:21;6.20;99.90
41939;DHT22;23057;48.554;14.454;2023-04-23T03:58:51;6.20;99.90
41939;DHT22;23057;48.554;14.454;2023-04-23T04:01:22;6.30;99.90
41939;DHT22;23057;48.554;14.454;2023-04-23T04:03:53;6.30;99.90
41939;DHT22;23057;48.554;14.454;2023-04-23T04:06:24;6.30;99.90
41939;DHT22;23057;48.554;14.454;2023-04-23T04:08:55;6.30;99.90
41939;DHT22;23057;48.554;14.454;2023-04-23T04:11:26;6.30;99.90
41939;DHT22;23057;48.554;14.454;2023-04-23T04:13:57;6.50;99.90
41939;DHT22;23057;48.554;14.454;2023-04-23T04:16:27;6.70;99.90
41939;DHT22;23057;48.554;14.454;2023-04-23T04:18:58;6.70;99.90
41939;DHT22;23057;48.554;14.454;2023-04-23T04:21:30;7.10;99.90
41939;DHT22;23057;48.554;14.454;2023-04-23T04:24:03;7.50;99.90
41939;DHT22;23057;48.554;14.454;2023-04-23T04:26:34;7.50;99.90
41939;DHT22;23057;48.554;14.454;2023-04-23T04:29:05;7.20;99.90
41939;DHT22;23057;48.554;14.454;2023-04-23T04:31:36;7.20;99.90
41939;DHT22;23057;48.554;14.454;2023-04-23T04:34:07;7.20;99.90
41939;DHT22;23057;48.554;14.454;2023-04-23T04:36:39;7.20;99.90
41939;DHT22;23057;48.554;14.454;2023-04-23T04:39:11;7.30;99.90
41939;DHT22;23057;48.554;14.454;2023-04-23T04:41:44;7.50;99.90
41939;DHT22;23057;48.554;14.454;2023-04-23T04:44:16;7.60;99.90
41939;DHT22;23057;48.554;14.454;2023-04-23T04:46:47;7.50;99.90
41939;DHT22;23057;48.554;14.454;2023-04-23T04:49:17;7.50;99.90
41939;DHT22;23057;48.554;14.454;2023-04-23T04:51:48;7.60;99.90
41939;DHT22;23057;48.554;14.454;2023-04-23T04:54:19;7.90;99.90
41939;DHT22;23057;48.554;14.454;2023-04-23T04:56:51;8.00;99.90
41939;DHT22;23057;48.554;14.454;2023-04-23T04:59:21;7.90;99.90
41939;DHT22;23057;48.554;14.454;2023-04-23T05:01:52;7.80;99.90
41939;DHT22;23057;48.554;14.454;2023-04-23T05:04:23;7.60;99.90
41939;DHT22;23057;48.554;14.454;2023-04-23T05:06:54;7.40;99.90
41939;DHT22;23057;48.554;14.454;2023-04-23T05:09:25;7.50;99.90
41939;DHT22;23057;48.554;14.454;2023-04-23T05:11:56;7.40;99.90
41939;DHT22;23057;48.554;14.454;2023-04-23T05:14:27;7.50;99.90
41939;DHT22;23057;48.554;14.454;2023-04-23T05:16:58;7.70;99.90
41939;DHT22;23057;48.554;14.454;2023-04-23T05:19:29;7.80;99.90
41939;DHT22;23057;48.554;14.454;2023-04-23T05:22:00;8.00;99.90
41939;DHT22;23057;48.554;14.454;2023-04-23T05:24:32;8.10;99.90
41939;DHT22;23057;48.554;14.454;2023-04-23T05:27:03;8.20;99.90
41939;DHT22;23057;48.554;14.454;2023-04-23T05:29:34;8.20;99.90
41939;DHT22;23057;48.554;14.454;2023-04-23T05:32:05;8.30;99.90
41939;DHT22;23057;48.554;14.454;2023-04-23T05:34:35;8.40;99.90
41939;DHT22;23057;48.554;14.454;2023-04-23T05:37:06;8.30;99.90
41939;DHT22;23057;48.554;14.454;2023-04-23T05:39:37;8.40;99.90
41939;DHT22;23057;48.554;14.454;2023-04-23T05:42:08;8.40;99.90
41939;DHT22;23057;48.554;14.454;2023-04-23T05:44:39;8.50;99.90
41939;DHT22;23057;48.554;14.454;2023-04-23T05:47:11;8.70;99.90
41939;DHT22;23057;48.554;14.454;2023-04-23T05:49:43;8.80;99.90
41939;DHT22;23057;48.554;14.454;2023-04-23T05:52:14;8.90;99.90
41939;DHT22;23057;48.554;14.454;2023-04-23T05:54:45;8.90;99.90
41939;DHT22;23057;48.554;14.454;2023-04-23T05:57:16;9.00;99.90
41939;DHT22;23057;48.554;14.454;2023-04-23T05:59:47;9.00;99.90
41939;DHT22;23057;48.554;14.454;2023-04-23T06:02:18;9.00;99.90
41939;DHT22;23057;48.554;14.454;2023-04-23T06:04:49;9.00;99.90
41939;DHT22;23057;48.554;14.454;2023-04-23T06:07:19;9.10;99.90
41939;DHT22;23057;48.554;14.454;2023-04-23T06:09:50;9.20;99.90
41939;DHT22;23057;48.554;14.454;2023-04-23T06:12:21;9.30;99.90
41939;DHT22;23057;48.554;14.454;2023-04-23T06:14:51;9.50;99.90
41939;DHT22;23057;48.554;14.454;2023-04-23T06:17:22;9.70;99.90
41939;DHT22;23057;48.554;14.454;2023-04-23T06:19:53;9.80;99.90
41939;DHT22;23057;48.554;14.454;2023-04-23T06:22:24;10.30;99.90
41939;DHT22;23057;48.554;14.454;2023-04-23T06:24:55;11.40;99.90
41939;DHT22;23057;48.554;14.454;2023-04-23T06:27:25;11.70;99.90
41939;DHT22;23057;48.554;14.454;2023-04-23T06:29:56;11.60;1.00
41939;DHT22;23057;48.554;14.454;2023-04-23T06:32:27;12.00;99.90
41939;DHT22;23057;48.554;14.454;2023-04-23T06:34:58;13.70;99.90
41939;DHT22;23057;48.554;14.454;2023-04-23T06:37:29;14.60;99.90
41939;DHT22;23057;48.554;14.454;2023-04-23T06:40:02;14.90;99.90
41939;DHT22;23057;48.554;14.454;2023-04-23T06:42:33;15.70;87.40
41939;DHT22;23057;48.554;14.454;2023-04-23T06:45:04;15.30;43.20
41939;DHT22;23057;48.554;14.454;2023-04-23T06:47:36;14.80;42.90
41939;DHT22;23057;48.554;14.454;2023-04-23T06:50:07;15.00;57.10
41939;DHT22;23057;48.554;14.454;2023-04-23T06:52:38;15.40;96.80
41939;DHT22;23057;48.554;14.454;2023-04-23T06:55:09;15.40;39.90
41939;DHT22;23057;48.554;14.454;2023-04-23T06:57:40;15.40;99.90
41939;DHT22;23057;48.554;14.454;2023-04-23T07:00:11;15.20;78.10
41939;DHT22;23057;48.554;14.454;2023-04-23T07:02:42;14.80;70.80
41939;DHT22;23057;48.554;14.454;2023-04-23T07:05:13;14.50;99.90
41939;DHT22;23057;48.554;14.454;2023-04-23T07:07:46;14.30;99.90
41939;DHT22;23057;48.554;14.454;2023-04-23T07:10:17;14.20;99.90
41939;DHT22;23057;48.554;14.454;2023-04-23T07:12:48;13.80;99.90
41939;DHT22;23057;48.554;14.454;2023-04-23T07:15:19;13.70;99.90
41939;DHT22;23057;48.554;14.454;2023-04-23T07:17:50;13.80;99.90
41939;DHT22;23057;48.554;14.454;2023-04-23T07:20:20;13.80;99.90
41939;DHT22;23057;48.554;14.454;2023-04-23T07:22:51;13.70;99.90
41939;DHT22;23057;48.554;14.454;2023-04-23T07:25:22;13.60;99.90
41939;DHT22;23057;48.554;14.454;2023-04-23T07:27:54;13.50;1.00
41939;DHT22;23057;48.554;14.454;2023-04-23T07:30:25;13.40;99.90
41939;DHT22;23057;48.554;14.454;2023-04-23T07:32:56;13.40;1.00
41939;DHT22;23057;48.554;14.454;2023-04-23T07:35:27;13.50;1.00
41939;DHT22;23057;48.554;14.454;2023-04-23T07:37:58;13.90;99.90
41939;DHT22;23057;48.554;14.454;2023-04-23T07:40:29;14.30;99.90
41939;DHT22;23057;48.554;14.454;2023-04-23T07:43:00;14.70;99.90
41939;DHT22;23057;48.554;14.454;2023-04-23T07:45:30;15.30;99.90
41939;DHT22;23057;48.554;14.454;2023-04-23T07:48:01;15.60;99.90
41939;DHT22;23057;48.554;14.454;2023-04-23T07:50:32;15.60;99.90
41939;DHT22;23057;48.554;14.454;2023-04-23T07:53:03;15.90;99.90
41939;DHT22;23057;48.554;14.454;2023-04-23T07:55:34;16.20;99.90
41939;DHT22;23057;48.554;14.454;2023-04-23T07:58:04;16.20;99.90
41939;DHT22;23057;48.554;14.454;2023-04-23T08:00:35;16.40;93.40
41939;DHT22;23057;48.554;14.454;2023-04-23T08:03:06;16.50;92.90
41939;DHT22;23057;48.554;14.454;2023-04-23T08:05:36;16.70;5.40
41939;DHT22;23057;48.554;14.454;2023-04-23T08:08:09;16.90;1.00
41939;DHT22;23057;48.554;14.454;2023-04-23T08:10:44;17.00;1.00
41939;DHT22;23057;48.554;14.454;2023-04-23T08:13:15;16.90;1.00
41939;DHT22;23057;48.554;14.454;2023-04-23T08:15:46;17.00;1.00
41939;DHT22;23057;48.554;14.454;2023-04-23T08:18:18;17.50;1.00
41939;DHT22;23057;48.554;14.454;2023-04-23T08:20:49;17.70;1.00
41939;DHT22;23057;48.554;14.454;2023-04-23T08:23:20;16.70;1.00
41939;DHT22;23057;48.554;14.454;2023-04-23T08:25:51;16.00;1.00
41939;DHT22;23057;48.554;14.454;2023-04-23T08:28:21;15.60;1.00
41939;DHT22;23057;48.554;14.454;2023-04-23T08:30:52;15.70;1.00
41939;DHT22;23057;48.554;14.454;2023-04-23T08:33:23;15.60;1.00
41939;DHT22;23057;48.554;14.454;2023-04-23T08:35:54;15.40;1.00
41939;DHT22;23057;48.554;14.454;2023-04-23T08:38:25;15.40;1.00
41939;DHT22;23057;48.554;14.454;2023-04-23T08:40:56;15.40;1.00
41939;DHT22;23057;48.554;14.454;2023-04-23T08:43:42;15.20;1.00
41939;DHT22;23057;48.554;14.454;2023-04-23T08:46:20;15.20;1.00
41939;DHT22;23057;48.554;14.454;2023-04-23T08:48:53;15.10;7.70
41939;DHT22;23057;48.554;14.454;2023-04-23T08:51:29;14.90;1.00
41939;DHT22;23057;48.554;14.454;2023-04-23T08:54:08;15.00;30.10
41939;DHT22;23057;48.554;14.454;2023-04-23T08:56:50;14.90;8.50
41939;DHT22;23057;48.554;14.454;2023-04-23T08:59:29;14.90;9.50
41939;DHT22;23057;48.554;14.454;2023-04-23T09:02:03;14.80;15.70
41939;DHT22;23057;48.554;14.454;2023-04-23T09:04:39;15.00;50.60
41939;DHT22;23057;48.554;14.454;2023-04-23T09:07:11;15.20;11.00
41939;DHT22;23057;48.554;14.454;2023-04-23T09:09:43;15.30;6.10
41939;DHT22;23057;48.554;14.454;2023-04-23T09:12:13;15.40;1.00
41939;DHT22;23057;48.554;14.454;2023-04-23T09:14:44;15.30;16.50
41939;DHT22;23057;48.554;14.454;2023-04-23T09:17:16;15.40;5.20
41939;DHT22;23057;48.554;14.454;2023-04-23T09:19:51;15.50;12.70
41939;DHT22;23057;48.554;14.454;2023-04-23T09:22:39;15.20;99.90
41939;DHT22;23057;48.554;14.454;2023-04-23T09:25:15;15.10;65.90
41939;DHT22;23057;48.554;14.454;2023-04-23T09:27:50;15.20;43.70
41939;DHT22;23057;48.554;14.454;2023-04-23T09:30:22;15.60;34.70
41939;DHT22;23057;48.554;14.454;2023-04-23T09:32:54;16.10;1.00
41939;DHT22;23057;48.554;14.454;2023-04-23T09:35:25;16.20;1.00
41939;DHT22;23057;48.554;14.454;2023-04-23T09:37:57;16.40;1.00
41939;DHT22;23057;48.554;14.454;2023-04-23T09:40:28;16.50;1.00
41939;DHT22;23057;48.554;14.454;2023-04-23T09:42:58;16.00;1.00
41939;DHT22;23057;48.554;14.454;2023-04-23T09:45:34;16.10;1.00
41939;DHT22;23057;48.554;14.454;2023-04-23T09:48:05;16.40;1.00
41939;DHT22;23057;48.554;14.454;2023-04-23T09:50:37;16.50;1.00
41939;DHT22;23057;48.554;14.454;2023-04-23T09:53:09;16.80;1.00
41939;DHT22;23057;48.554;14.454;2023-04-23T09:55:40;16.90;1.00
41939;DHT22;23057;48.554;14.454;2023-04-23T09:58:13;16.90;1.00
41939;DHT22;23057;48.554;14.454;2023-04-23T10:00:45;16.60;1.00
41939;DHT22;23057;48.554;14.454;2023-04-23T10:03:17;16.40;1.00
41939;DHT22;23057;48.554;14.454;2023-04-23T10:05:56;16.50;1.00
41939;DHT22;23057;48.554;14.454;2023-04-23T10:08:28;16.20;1.00
41939;DHT22;23057;48.554;14.454;2023-04-23T10:11:01;16.00;1.00
41939;DHT22;23057;48.554;14.454;2023-04-23T10:13:33;16.10;1.00
41939;DHT22;23057;48.554;14.454;2023-04-23T10:16:05;16.30;1.00
41939;DHT22;23057;48.554;14.454;2023-04-23T10:18:37;16.20;1.00
41939;DHT22;23057;48.554;14.454;2023-04-23T10:21:08;16.30;1.00
41939;DHT22;23057;48.554;14.454;2023-04-23T10:23:41;16.80;1.00
41939;DHT22;23057;48.554;14.454;2023-04-23T10:26:17;16.90;1.00
41939;DHT22;23057;48.554;14.454;2023-04-23T10:28:53;17.30;1.00
41939;DHT22;23057;48.554;14.454;2023-04-23T10:31:25;17.40;1.00
41939;DHT22;23057;48.554;14.454;2023-04-23T10:33:57;17.50;1.00
41939;DHT22;23057;48.554;14.454;2023-04-23T10:36:29;17.20;1.00
41939;DHT22;23057;48.554;14.454;2023-04-23T10:39:00;17.30;1.00
41939;DHT22;23057;48.554;14.454;2023-04-23T10:41:37;17.40;1.00
41939;DHT22;23057;48.554;14.454;2023-04-23T10:44:11;17.00;1.00
41939;DHT22;23057;48.554;14.454;2023-04-23T10:46:52;17.00;1.00
41939;DHT22;23057;48.554;14.454;2023-04-23T10:49:30;17.20;1.00
41939;DHT22;23057;48.554;14.454;2023-04-23T10:52:10;17.40;1.00
41939;DHT22;23057;48.554;14.454;2023-04-23T10:54:49;17.10;1.00
41939;DHT22;23057;48.554;14.454;2023-04-23T10:57:28;17.30;1.00
41939;DHT22;23057;48.554;14.454;2023-04-23T10:59:59;17.30;1.00
41939;DHT22;23057;48.554;14.454;2023-04-23T11:02:41;17.40;1.00
41939;DHT22;23057;48.554;14.454;2023-04-23T11:05:13;17.80;1.00
41939;DHT22;23057;48.554;14.454;2023-04-23T11:08:01;18.10;99.90
41939;DHT22;23057;48.554;14.454;2023-04-23T11:10:56;19.30;99.90
41939;DHT22;23057;48.554;14.454;2023-04-23T11:13:29;19.80;99.90
41939;DHT22;23057;48.554;14.454;2023-04-23T11:16:16;19.30;99.90
41939;DHT22;23057;48.554;14.454;2023-04-23T11:19:01;18.30;99.90
41939;DHT22;23057;48.554;14.454;2023-04-23T11:24:43;18.20;99.90
41939;DHT22;23057;48.554;14.454;2023-04-23T11:27:15;17.80;99.90
41939;DHT22;23057;48.554;14.454;2023-04-23T11:29:47;17.30;99.90
41939;DHT22;23057;48.554;14.454;2023-04-23T11:32:18;17.20;99.90
41939;DHT22;23057;48.554;14.454;2023-04-23T11:34:51;17.50;99.90
41939;DHT22;23057;48.554;14.454;2023-04-23T11:37:23;17.70;99.90
41939;DHT22;23057;48.554;14.454;2023-04-23T11:39:54;17.70;99.90
41939;DHT22;23057;48.554;14.454;2023-04-23T11:42:25;17.50;99.90
41939;DHT22;23057;48.554;14.454;2023-04-23T11:44:57;17.40;1.00
41939;DHT22;23057;48.554;14.454;2023-04-23T11:47:28;17.30;1.00
41939;DHT22;23057;48.554;14.454;2023-04-23T11:49:59;17.20;1.00
41939;DHT22;23057;48.554;14.454;2023-04-23T11:52:30;17.10;1.00
41939;DHT22;23057;48.554;14.454;2023-04-23T11:55:02;16.90;1.00
41939;DHT22;23057;48.554;14.454;2023-04-23T11:57:36;17.00;1.00
41939;DHT22;23057;48.554;14.454;2023-04-23T12:00:22;17.50;1.00
41939;DHT22;23057;48.554;14.454;2023-04-23T12:10:46;17.30;1.00
41939;DHT22;23057;48.554;14.454;2023-04-23T12:13:23;17.10;1.00
41939;DHT22;23057;48.554;14.454;2023-04-23T12:16:00;17.10;1.00
41939;DHT22;23057;48.554;14.454;2023-04-23T12:18:34;17.50;1.00
41939;DHT22;23057;48.554;14.454;2023-04-23T12:21:11;17.70;1.00
41939;DHT22;23057;48.554;14.454;2023-04-23T12:23:43;17.50;1.00
41939;DHT22;23057;48.554;14.454;2023-04-23T12:26:14;17.50;1.00
41939;DHT22;23057;48.554;14.454;2023-04-23T12:31:29;17.20;1.00
41939;DHT22;23057;48.554;14.454;2023-04-23T12:34:04;16.80;1.00
41939;DHT22;23057;48.554;14.454;2023-04-23T12:36:37;17.10;1.00
41939;DHT22;23057;48.554;14.454;2023-04-23T12:39:29;17.50;1.00
41939;DHT22;23057;48.554;14.454;2023-04-23T12:42:03;17.50;1.00
41939;DHT22;23057;48.554;14.454;2023-04-23T12:44:37;17.50;1.00
41939;DHT22;23057;48.554;14.454;2023-04-23T12:47:09;17.20;1.00
41939;DHT22;23057;48.554;14.454;2023-04-23T12:49:40;17.20;1.00
41939;DHT22;23057;48.554;14.454;2023-04-23T12:52:12;17.20;1.00
41939;DHT22;23057;48.554;14.454;2023-04-23T12:54:43;17.10;1.00
41939;DHT22;23057;48.554;14.454;2023-04-23T12:57:14;17.20;1.00
41939;DHT22;23057;48.554;14.454;2023-04-23T12:59:45;17.10;1.00
41939;DHT22;23057;48.554;14.454;2023-04-23T13:02:15;16.80;1.00
41939;DHT22;23057;48.554;14.454;2023-04-23T13:04:46;17.10;1.00
41939;DHT22;23057;48.554;14.454;2023-04-23T13:07:17;17.20;1.00
41939;DHT22;23057;48.554;14.454;2023-04-23T13:09:48;17.20;1.00
41939;DHT22;23057;48.554;14.454;2023-04-23T13:12:18;17.20;1.00
41939;DHT22;23057;48.554;14.454;2023-04-23T13:14:49;17.40;1.00
41939;DHT22;23057;48.554;14.454;2023-04-23T13:17:20;17.30;1.00
41939;DHT22;23057;48.554;14.454;2023-04-23T13:19:52;17.20;1.00
41939;DHT22;23057;48.554;14.454;2023-04-23T13:22:24;17.20;1.00
41939;DHT22;23057;48.554;14.454;2023-04-23T13:24:58;17.30;1.00
41939;DHT22;23057;48.554;14.454;2023-04-23T13:27:29;17.10;1.00
41939;DHT22;23057;48.554;14.454;2023-04-23T13:30:00;16.80;1.00
41939;DHT22;23057;48.554;14.454;2023-04-23T13:32:31;16.90;1.00
41939;DHT22;23057;48.554;14.454;2023-04-23T13:35:01;16.80;1.00
41939;DHT22;23057;48.554;14.454;2023-04-23T13:37:34;16.60;1.00
41939;DHT22;23057;48.554;14.454;2023-04-23T13:40:05;16.60;1.00
41939;DHT22;23057;48.554;14.454;2023-04-23T13:42:36;16.80;1.00
41939;DHT22;23057;48.554;14.454;2023-04-23T13:45:07;16.70;1.00
41939;DHT22;23057;48.554;14.454;2023-04-23T13:47:38;16.80;1.00
41939;DHT22;23057;48.554;14.454;2023-04-23T13:50:09;16.60;1.00
41939;DHT22;23057;48.554;14.454;2023-04-23T13:52:40;16.50;1.00
41939;DHT22;23057;48.554;14.454;2023-04-23T13:55:11;16.70;1.00
41939;DHT22;23057;48.554;14.454;2023-04-23T13:57:42;16.70;1.00
41939;DHT22;23057;48.554;14.454;2023-04-23T14:00:13;17.00;1.00
41939;DHT22;23057;48.554;14.454;2023-04-23T14:02:44;16.70;1.00
41939;DHT22;23057;48.554;14.454;2023-04-23T14:05:15;16.60;1.00
41939;DHT22;23057;48.554;14.454;2023-04-23T14:07:45;16.60;1.00
41939;DHT22;23057;48.554;14.454;2023-04-23T14:10:16;16.40;1.00
41939;DHT22;23057;48.554;14.454;2023-04-23T14:12:48;16.30;1.00
41939;DHT22;23057;48.554;14.454;2023-04-23T14:15:19;16.30;1.00
41939;DHT22;23057;48.554;14.454;2023-04-23T14:17:50;16.50;1.00
41939;DHT22;23057;48.554;14.454;2023-04-23T14:20:20;16.50;1.00
41939;DHT22;23057;48.554;14.454;2023-04-23T14:22:56;16.60;1.00
41939;DHT22;23057;48.554;14.454;2023-04-23T14:26:20;16.50;1.00
41939;DHT22;23057;48.554;14.454;2023-04-23T14:29:02;16.60;1.00
41939;DHT22;23057;48.554;14.454;2023-04-23T14:32:07;16.60;1.00
41939;DHT22;23057;48.554;14.454;2023-04-23T14:34:38;16.50;1.00
41939;DHT22;23057;48.554;14.454;2023-04-23T14:37:09;16.40;1.00
41939;DHT22;23057;48.554;14.454;2023-04-23T14:39:40;16.30;1.00
41939;DHT22;23057;48.554;14.454;2023-04-23T14:42:11;16.30;1.00
41939;DHT22;23057;48.554;14.454;2023-04-23T14:44:41;16.40;1.00
41939;DHT22;23057;48.554;14.454;2023-04-23T14:47:12;16.30;1.00
41939;DHT22;23057;48.554;14.454;2023-04-23T14:49:44;16.40;1.00
41939;DHT22;23057;48.554;14.454;2023-04-23T14:52:14;16.40;1.00
41939;DHT22;23057;48.554;14.454;2023-04-23T14:54:45;16.60;10.60
41939;DHT22;23057;48.554;14.454;2023-04-23T14:57:16;16.20;1.00
41939;DHT22;23057;48.554;14.454;2023-04-23T14:59:47;16.30;94.70
41939;DHT22;23057;48.554;14.454;2023-04-23T15:02:17;16.50;13.80
41939;DHT22;23057;48.554;14.454;2023-04-23T15:04:48;16.30;10.90
41939;DHT22;23057;48.554;14.454;2023-04-23T15:07:19;16.30;1.00
41939;DHT22;23057;48.554;14.454;2023-04-23T15:09:50;16.40;1.00
41939;DHT22;23057;48.554;14.454;2023-04-23T15:17:55;16.10;44.20
41939;DHT22;23057;48.554;14.454;2023-04-23T15:20:25;15.90;19.50
41939;DHT22;23057;48.554;14.454;2023-04-23T15:22:56;15.80;51.90
41939;DHT22;23057;48.554;14.454;2023-04-23T15:25:28;15.60;78.00
41939;DHT22;23057;48.554;14.454;2023-04-23T15:27:59;15.40;99.90
41939;DHT22;23057;48.554;14.454;2023-04-23T15:30:31;15.10;99.90
41939;DHT22;23057;48.554;14.454;2023-04-23T15:33:01;14.90;99.90
41939;DHT22;23057;48.554;14.454;2023-04-23T15:35:32;14.90;99.90
41939;DHT22;23057;48.554;14.454;2023-04-23T15:38:05;14.80;99.90
41939;DHT22;23057;48.554;14.454;2023-04-23T15:40:35;14.80;99.90
41939;DHT22;23057;48.554;14.454;2023-04-23T15:43:11;14.80;99.90
41939;DHT22;23057;48.554;14.454;2023-04-23T15:45:42;14.80;99.90
41939;DHT22;23057;48.554;14.454;2023-04-23T15:48:17;14.70;99.90
41939;DHT22;23057;48.554;14.454;2023-04-23T15:50:48;14.60;99.90
41939;DHT22;23057;48.554;14.454;2023-04-23T15:53:19;14.60;99.90
41939;DHT22;23057;48.554;14.454;2023-04-23T15:55:52;14.60;99.90
41939;DHT22;23057;48.554;14.454;2023-04-23T15:58:22;14.60;99.90
41939;DHT22;23057;48.554;14.454;2023-04-23T16:00:53;14.60;99.90
41939;DHT22;23057;48.554;14.454;2023-04-23T16:03:25;14.50;99.90
41939;DHT22;23057;48.554;14.454;2023-04-23T16:05:56;14.50;99.90
41939;DHT22;23057;48.554;14.454;2023-04-23T16:08:27;14.40;99.90
41939;DHT22;23057;48.554;14.454;2023-04-23T16:10:57;14.40;99.90
41939;DHT22;23057;48.554;14.454;2023-04-23T16:13:28;14.40;99.90
41939;DHT22;23057;48.554;14.454;2023-04-23T16:15:59;14.50;99.90
41939;DHT22;23057;48.554;14.454;2023-04-23T16:18:30;14.40;99.90
41939;DHT22;23057;48.554;14.454;2023-04-23T16:21:01;14.50;99.90